Time;durP1;ratioP1;P1;durP2;ratioP2;P2;SDS_P1;SDS_P2;PMS_P1;PMS_P2;Temp;Humidity;BMP_temperature;BMP_pressure;BME280_temperature;BME280_humidity;BME280_pressure;Samples;Min_cycle;Max_cycle;Signal;HPM_P1;HPM_P2
2024/02/03 00:02:01;;;;;;;3.65;1.77;;;7.40;95.30;;;;;;5050098;28;20036;-81
2024/02/03 00:04:26;;;;;;;6.28;1.98;;;7.90;94.70;;;;;;5051577;28;20032;-83
2024/02/03 00:06:52;;;;;;;4.43;1.75;;;8.10;94.60;;;;;;5050825;28;20044;-82
2024/02/03 00:09:18;;;;;;;4.13;1.90;;;8.60;94.00;;;;;;5050243;28;20108;-82
2024/02/03 00:11:47;;;;;;;4.90;1.83;;;8.70;93.80;;;;;;5052432;28;20069;-82
2024/02/03 00:14:13;;;;;;;4.38;2.50;;;8.60;94.00;;;;;;5051310;28;20086;-82
2024/02/03 00:16:38;;;;;;;6.72;3.75;;;8.10;94.40;;;;;;5051310;28;20028;-82
2024/02/03 00:19:04;;;;;;;16.05;11.50;;;8.00;94.60;;;;;;5051233;28;20044;-80
2024/02/03 00:21:29;;;;;;;6.95;4.22;;;8.40;94.30;;;;;;5051887;28;20157;-83
2024/02/03 00:23:55;;;;;;;4.00;2.05;;;8.50;94.10;;;;;;5050236;28;20048;-83
2024/02/03 00:26:21;;;;;;;4.75;2.00;;;8.60;93.90;;;;;;5050722;28;20040;-83
2024/02/03 00:28:49;;;;;;;5.65;2.05;;;8.50;94.10;;;;;;5050346;28;20048;-82
2024/02/03 00:31:15;;;;;;;6.43;2.05;;;8.40;94.20;;;;;;5050052;28;20035;-80
2024/02/03 00:33:41;;;;;;;5.30;2.67;;;8.60;93.90;;;;;;5048852;28;20040;-81
2024/02/03 00:36:07;;;;;;;4.60;2.10;;;8.50;94.10;;;;;;5050975;28;20028;-80
2024/02/03 00:38:32;;;;;;;8.30;5.05;;;8.40;94.20;;;;;;5048226;28;20028;-83
2024/02/03 00:40:58;;;;;;;6.32;3.50;;;8.40;94.50;;;;;;5048502;28;20041;-81
2024/02/03 00:43:24;;;;;;;3.35;1.70;;;8.50;94.10;;;;;;5050566;28;20036;-81
2024/02/03 00:45:50;;;;;;;14.43;9.52;;;8.50;94.30;;;;;;5049299;28;20536;-83
2024/02/03 00:48:16;;;;;;;8.05;5.13;;;8.30;94.70;;;;;;5051110;28;20070;-80
2024/02/03 00:50:41;;;;;;;6.07;3.17;;;8.50;94.60;;;;;;5050887;28;20033;-82
2024/02/03 00:53:07;;;;;;;4.63;2.20;;;8.30;94.80;;;;;;5050571;28;20603;-80
2024/02/03 00:55:33;;;;;;;11.10;8.85;;;8.50;94.70;;;;;;5049669;28;20804;-80
2024/02/03 00:57:58;;;;;;;10.00;6.50;;;7.90;95.50;;;;;;5053396;28;20506;-83
2024/02/03 01:00:27;;;;;;;7.25;4.82;;;8.10;95.30;;;;;;5052909;28;20036;-82
2024/02/03 01:02:54;;;;;;;8.05;2.40;;;8.20;95.30;;;;;;5053830;28;20079;-80
2024/02/03 01:05:19;;;;;;;4.20;1.75;;;8.40;95.00;;;;;;5050819;28;20048;-83
2024/02/03 01:07:45;;;;;;;5.25;1.52;;;8.10;95.50;;;;;;5055002;28;20040;-83
2024/02/03 01:10:11;;;;;;;3.75;2.40;;;8.20;95.40;;;;;;5053289;28;20060;-80
2024/02/03 01:12:36;;;;;;;3.00;1.40;;;8.40;95.30;;;;;;5053713;28;20063;-82
2024/02/03 01:15:02;;;;;;;3.85;1.52;;;8.40;95.20;;;;;;5053668;28;20047;-83
2024/02/03 01:17:28;;;;;;;6.07;2.10;;;8.60;95.00;;;;;;5054314;28;20501;-81
2024/02/03 01:19:54;;;;;;;4.45;1.60;;;8.50;95.20;;;;;;5052907;28;20078;-83
2024/02/03 01:22:20;;;;;;;4.40;1.35;;;8.40;95.50;;;;;;5052728;28;20036;-80
2024/02/03 01:24:47;;;;;;;4.72;1.92;;;8.40;95.30;;;;;;5054869;28;20036;-80
2024/02/03 01:27:13;;;;;;;4.50;2.17;;;8.30;95.30;;;;;;5054083;28;20611;-80
2024/02/03 01:29:39;;;;;;;3.47;1.67;;;8.50;95.40;;;;;;5052513;28;20036;-80
2024/02/03 01:32:05;;;;;;;2.53;1.45;;;8.40;95.20;;;;;;5054215;28;20725;-80
2024/02/03 01:34:31;;;;;;;5.90;1.65;;;8.50;95.10;;;;;;5053360;28;20632;-80
2024/02/03 01:36:57;;;;;;;4.03;1.63;;;8.30;95.30;;;;;;5053491;28;20036;-82
2024/02/03 01:39:22;;;;;;;3.22;1.30;;;8.10;95.50;;;;;;5053647;28;20119;-82
2024/02/03 01:41:48;;;;;;;3.33;1.50;;;8.10;95.60;;;;;;5055612;28;20508;-83
2024/02/03 01:44:14;;;;;;;2.80;1.33;;;7.70;96.30;;;;;;5053908;28;20116;-82
2024/02/03 01:46:39;;;;;;;4.20;1.70;;;7.50;96.90;;;;;;5052491;28;20542;-82
2024/02/03 01:49:05;;;;;;;3.63;1.60;;;7.40;96.20;;;;;;5054243;28;20039;-82
2024/02/03 01:51:31;;;;;;;5.03;1.85;;;7.30;96.40;;;;;;5048980;28;20441;-82
2024/02/03 01:53:57;;;;;;;4.72;1.90;;;7.40;96.40;;;;;;5053377;28;20078;-82
2024/02/03 01:56:25;;;;;;;5.28;2.30;;;7.30;96.60;;;;;;5053264;28;20033;-82
2024/02/03 01:58:50;;;;;;;3.75;1.70;;;7.30;96.80;;;;;;5052322;28;20037;-82
2024/02/03 02:01:16;;;;;;;4.22;1.42;;;7.20;97.00;;;;;;5052693;28;20063;-82
2024/02/03 02:03:43;;;;;;;7.40;1.77;;;7.30;97.00;;;;;;5052076;28;20094;-82
2024/02/03 02:06:09;;;;;;;5.90;1.75;;;7.30;96.80;;;;;;5050174;28;20044;-83
2024/02/03 02:08:36;;;;;;;3.45;1.70;;;7.30;96.70;;;;;;5053159;28;20045;-82
2024/02/03 02:11:03;;;;;;;3.92;1.92;;;7.30;96.90;;;;;;5052899;28;20743;-82
2024/02/03 02:13:29;;;;;;;4.18;1.95;;;7.20;96.90;;;;;;5035540;28;20036;-82
2024/02/03 02:15:55;;;;;;;4.63;2.13;;;7.20;96.60;;;;;;5052952;28;20520;-81
2024/02/03 02:18:20;;;;;;;4.45;2.20;;;7.10;96.60;;;;;;5052511;28;20032;-82
2024/02/03 02:20:46;;;;;;;4.03;1.85;;;7.10;96.80;;;;;;5053807;28;20487;-82
2024/02/03 02:23:12;;;;;;;4.97;2.10;;;7.20;97.10;;;;;;5051875;28;20090;-82
2024/02/03 02:25:37;;;;;;;5.00;2.22;;;7.20;96.70;;;;;;5051994;28;25033;-82
2024/02/03 02:28:03;;;;;;;11.07;2.08;;;7.30;96.50;;;;;;5047534;28;20029;-82
2024/02/03 02:30:29;;;;;;;5.45;2.20;;;7.20;96.70;;;;;;5052525;28;21363;-82
2024/02/03 02:32:55;;;;;;;3.55;1.90;;;7.20;96.80;;;;;;5049179;28;20032;-83
2024/02/03 02:35:21;;;;;;;4.00;1.80;;;7.40;96.60;;;;;;5050961;28;20039;-82
2024/02/03 02:37:47;;;;;;;3.75;1.70;;;7.50;96.30;;;;;;5050965;28;20090;-81
2024/02/03 02:40:13;;;;;;;6.32;2.08;;;7.50;96.30;;;;;;5050552;28;20045;-82
2024/02/03 02:42:39;;;;;;;4.25;1.92;;;7.70;96.10;;;;;;5052693;28;20033;-81
2024/02/03 02:45:04;;;;;;;3.33;1.65;;;7.90;95.90;;;;;;5052754;28;20093;-82
2024/02/03 02:47:31;;;;;;;5.55;2.00;;;7.70;96.20;;;;;;5052477;28;20127;-82
2024/02/03 02:49:56;;;;;;;4.30;1.95;;;7.40;96.50;;;;;;5051790;28;20075;-82
2024/02/03 02:52:22;;;;;;;3.83;1.80;;;7.30;96.60;;;;;;5054404;28;20128;-82
2024/02/03 02:54:48;;;;;;;5.45;2.00;;;7.40;96.50;;;;;;5056371;28;20123;-82
2024/02/03 02:57:13;;;;;;;4.90;2.10;;;7.40;96.60;;;;;;5057196;28;20059;-82
2024/02/03 02:59:40;;;;;;;7.57;2.30;;;7.40;96.70;;;;;;5053971;28;20028;-82
2024/02/03 03:02:06;;;;;;;3.83;1.63;;;7.20;97.00;;;;;;5053146;28;20044;-82
2024/02/03 03:04:31;;;;;;;5.10;2.03;;;7.20;97.00;;;;;;5056817;28;20041;-82
2024/02/03 03:06:57;;;;;;;3.60;1.60;;;7.10;97.30;;;;;;5053601;28;20047;-82
2024/02/03 03:09:23;;;;;;;5.15;1.90;;;7.00;97.40;;;;;;5055015;28;20049;-82
2024/02/03 03:11:48;;;;;;;7.75;1.95;;;7.20;97.10;;;;;;5056564;28;20040;-83
2024/02/03 03:14:14;;;;;;;5.47;1.80;;;7.20;97.00;;;;;;5055850;28;20036;-83
2024/02/03 03:16:40;;;;;;;3.92;1.60;;;7.20;97.00;;;;;;5056843;28;20029;-83
2024/02/03 03:19:06;;;;;;;3.75;1.65;;;7.10;97.10;;;;;;5056801;28;21058;-82
2024/02/03 03:21:32;;;;;;;6.10;2.40;;;7.00;97.30;;;;;;5054394;28;20067;-82
2024/02/03 03:23:57;;;;;;;3.75;1.80;;;7.00;97.30;;;;;;5038217;28;20769;-83
2024/02/03 03:26:23;;;;;;;3.67;1.55;;;7.10;97.30;;;;;;5054962;28;20044;-82
2024/02/03 03:28:49;;;;;;;5.63;1.80;;;7.20;97.20;;;;;;5052313;28;20124;-82
2024/02/03 03:31:15;;;;;;;3.55;1.65;;;7.20;97.10;;;;;;5056047;28;20033;-82
2024/02/03 03:33:40;;;;;;;5.70;1.95;;;7.20;97.10;;;;;;5054530;28;20620;-83
2024/02/03 03:36:06;;;;;;;3.67;1.60;;;7.20;97.10;;;;;;5053659;28;20094;-82
2024/02/03 03:38:34;;;;;;;5.43;2.17;;;7.10;97.10;;;;;;5055098;28;20040;-81
2024/02/03 03:41:00;;;;;;;3.42;1.73;;;7.20;97.10;;;;;;5050477;28;20033;-81
2024/02/03 03:43:25;;;;;;;4.30;2.10;;;7.20;97.10;;;;;;5055371;28;20375;-81
2024/02/03 03:45:51;;;;;;;3.85;1.85;;;7.30;97.10;;;;;;5056915;28;20043;-81
2024/02/03 03:48:16;;;;;;;3.13;1.50;;;7.40;97.10;;;;;;5056955;28;20047;-81
2024/02/03 03:50:42;;;;;;;3.67;1.48;;;7.30;97.20;;;;;;5056247;28;20068;-81
2024/02/03 03:53:08;;;;;;;4.72;1.83;;;7.20;97.30;;;;;;5057410;28;20123;-81
2024/02/03 03:55:33;;;;;;;4.28;1.65;;;7.20;97.40;;;;;;5055936;28;20036;-81
2024/02/03 03:57:59;;;;;;;4.07;1.60;;;7.30;97.40;;;;;;5057293;28;20132;-81
2024/02/03 04:00:25;;;;;;;4.30;1.30;;;7.40;97.30;;;;;;5056667;28;20576;-81
2024/02/03 04:02:50;;;;;;;3.72;1.52;;;7.30;97.50;;;;;;5053938;28;20025;-81
2024/02/03 04:05:18;;;;;;;5.28;1.40;;;7.30;97.50;;;;;;5031549;28;20132;-81
2024/02/03 04:07:44;;;;;;;3.30;1.50;;;6.90;97.80;;;;;;5052566;28;20059;-81
2024/02/03 04:10:10;;;;;;;4.00;1.55;;;6.70;98.30;;;;;;5051795;28;20139;-81
2024/02/03 04:12:35;;;;;;;4.47;1.52;;;6.60;98.10;;;;;;5043866;28;20040;-81
2024/02/03 04:15:01;;;;;;;3.20;1.58;;;6.50;98.50;;;;;;5050040;28;20037;-81
2024/02/03 04:17:27;;;;;;;4.40;1.65;;;6.50;98.90;;;;;;5049485;28;20202;-80
2024/02/03 04:19:53;;;;;;;3.47;1.50;;;6.30;99.10;;;;;;5045227;28;20432;-81
2024/02/03 04:22:19;;;;;;;2.88;1.30;;;6.30;99.40;;;;;;5048051;28;20047;-81
2024/02/03 04:24:44;;;;;;;4.97;1.38;;;6.30;99.50;;;;;;5048805;28;20032;-81
2024/02/03 04:27:10;;;;;;;3.22;1.30;;;6.40;99.50;;;;;;5049712;28;20106;-81
2024/02/03 04:29:36;;;;;;;3.33;1.30;;;6.60;99.20;;;;;;5050660;28;20054;-81
2024/02/03 04:32:01;;;;;;;3.50;1.20;;;6.70;99.00;;;;;;5051601;28;20029;-81
2024/02/03 04:34:27;;;;;;;5.05;1.80;;;6.80;98.90;;;;;;5052323;28;20701;-81
2024/02/03 04:36:53;;;;;;;2.92;1.45;;;6.70;98.80;;;;;;5051324;28;20024;-81
2024/02/03 04:39:18;;;;;;;4.22;1.75;;;6.50;99.40;;;;;;5050102;28;20036;-81
2024/02/03 04:41:44;;;;;;;5.25;1.52;;;6.50;99.70;;;;;;5051983;28;21358;-81
2024/02/03 04:44:10;;;;;;;3.50;1.52;;;6.50;99.40;;;;;;5051815;28;20455;-81
2024/02/03 04:46:35;;;;;;;4.97;1.17;;;6.70;99.20;;;;;;5050050;28;20098;-81
2024/02/03 04:49:01;;;;;;;3.35;1.50;;;6.90;98.80;;;;;;5051383;28;20028;-82
2024/02/03 04:51:29;;;;;;;3.10;1.30;;;7.00;98.50;;;;;;5051325;28;20039;-81
2024/02/03 04:53:55;;;;;;;2.90;1.38;;;6.90;98.70;;;;;;5051274;28;20116;-81
2024/02/03 04:56:20;;;;;;;2.58;1.08;;;6.70;99.10;;;;;;5051547;28;20043;-81
2024/02/03 04:58:46;;;;;;;3.97;1.25;;;6.60;99.20;;;;;;5048967;28;20155;-81
2024/02/03 05:01:12;;;;;;;3.13;1.30;;;6.60;99.30;;;;;;5047831;28;20060;-81
2024/02/03 05:03:37;;;;;;;2.55;1.27;;;6.70;99.40;;;;;;5049887;28;20569;-81
2024/02/03 05:06:04;;;;;;;2.63;1.30;;;6.80;99.20;;;;;;5048632;28;20414;-81
2024/02/03 05:08:31;;;;;;;3.47;1.20;;;6.80;99.30;;;;;;5048370;28;20040;-81
2024/02/03 05:10:57;;;;;;;1.83;1.00;;;6.70;99.30;;;;;;5048811;28;20082;-81
2024/02/03 05:13:23;;;;;;;2.45;1.30;;;6.60;99.40;;;;;;5049275;28;20098;-81
2024/02/03 05:15:49;;;;;;;4.50;1.55;;;6.70;99.20;;;;;;5047456;28;20631;-81
2024/02/03 05:18:14;;;;;;;3.10;1.45;;;6.60;99.40;;;;;;5048186;28;20083;-81
2024/02/03 05:20:40;;;;;;;2.85;1.30;;;6.70;99.50;;;;;;5047420;28;20431;-81
2024/02/03 05:23:06;;;;;;;3.22;1.20;;;6.70;99.50;;;;;;5047827;28;20032;-80
2024/02/03 05:25:31;;;;;;;5.00;1.38;;;6.70;99.40;;;;;;5048620;28;20044;-81
2024/02/03 05:27:57;;;;;;;3.53;1.08;;;6.70;99.40;;;;;;5048204;28;20032;-81
2024/02/03 05:30:23;;;;;;;3.45;1.60;;;6.60;99.60;;;;;;5047391;28;20117;-81
2024/02/03 05:32:48;;;;;;;2.88;1.45;;;6.60;99.70;;;;;;5048654;28;20515;-81
2024/02/03 05:35:14;;;;;;;2.80;1.08;;;6.70;99.60;;;;;;5048108;28;20043;-81
2024/02/03 05:37:40;;;;;;;3.35;1.20;;;6.70;99.60;;;;;;5048180;28;20024;-81
2024/02/03 05:40:06;;;;;;;2.80;1.38;;;6.60;99.50;;;;;;5048272;28;20039;-81
2024/02/03 05:42:32;;;;;;;4.90;2.47;;;6.40;99.80;;;;;;5047330;28;20035;-81
2024/02/03 05:44:58;;;;;;;3.97;1.70;;;6.30;99.90;;;;;;5046905;28;20041;-81
2024/02/03 05:47:24;;;;;;;2.38;1.00;;;6.40;99.90;;;;;;5047196;28;20474;-81
2024/02/03 05:49:49;;;;;;;3.40;1.40;;;6.50;99.90;;;;;;5048265;28;20024;-81
2024/02/03 05:52:15;;;;;;;3.35;1.48;;;6.60;99.90;;;;;;5046355;28;20033;-81
2024/02/03 05:54:41;;;;;;;5.95;1.85;;;6.60;99.90;;;;;;5048585;28;20398;-81
2024/02/03 05:57:11;;;;;;;3.40;1.60;;;6.50;99.90;;;;;;5045289;28;20121;-81
2024/02/03 05:59:36;;;;;;;4.75;1.23;;;6.50;99.90;;;;;;5047407;28;20037;-81
2024/02/03 06:02:02;;;;;;;4.20;1.88;;;6.60;99.90;;;;;;5047807;28;20554;-81
2024/02/03 06:04:28;;;;;;;4.13;1.67;;;6.70;99.90;;;;;;5047596;28;20021;-81
2024/02/03 06:06:53;;;;;;;4.13;1.50;;;6.80;99.90;;;;;;5041985;28;20083;-79
2024/02/03 06:09:19;;;;;;;3.70;1.70;;;6.60;99.90;;;;;;5048084;28;20206;-79
2024/02/03 06:11:44;;;;;;;4.57;1.60;;;6.50;99.90;;;;;;5046390;28;20040;-79
2024/02/03 06:14:10;;;;;;;2.33;1.15;;;6.40;99.90;;;;;;5047847;28;20037;-79
2024/02/03 06:16:36;;;;;;;4.85;1.20;;;6.30;99.90;;;;;;5047928;28;20488;-80
2024/02/03 06:19:02;;;;;;;2.75;1.23;;;6.10;99.90;;;;;;5047387;28;20159;-80
2024/02/03 06:21:28;;;;;;;3.17;1.60;;;6.00;99.90;;;;;;5047113;28;20474;-79
2024/02/03 06:23:53;;;;;;;3.38;1.42;;;6.00;99.90;;;;;;5048833;28;20498;-79
2024/02/03 06:26:19;;;;;;;5.22;1.65;;;6.00;99.90;;;;;;5046055;28;20048;-81
2024/02/03 06:28:46;;;;;;;3.58;1.40;;;6.10;99.90;;;;;;5046078;28;20043;-82
2024/02/03 06:31:12;;;;;;;2.67;1.10;;;6.20;99.90;;;;;;5048021;28;20028;-81
2024/02/03 06:33:37;;;;;;;2.80;1.30;;;6.00;99.90;;;;;;5046107;28;20032;-82
2024/02/03 06:36:03;;;;;;;2.97;1.30;;;6.00;99.90;;;;;;5047025;28;20075;-81
2024/02/03 06:38:29;;;;;;;3.05;1.33;;;6.20;99.90;;;;;;5046857;28;20085;-82
2024/02/03 06:40:55;;;;;;;3.08;1.20;;;6.30;99.90;;;;;;5046527;28;20033;-81
2024/02/03 06:43:21;;;;;;;2.83;1.13;;;6.20;99.90;;;;;;5046320;28;20099;-81
2024/02/03 06:45:46;;;;;;;3.45;1.20;;;6.30;99.90;;;;;;5047446;28;20048;-82
2024/02/03 06:48:12;;;;;;;2.55;1.38;;;6.50;99.90;;;;;;5044826;28;20039;-82
2024/02/03 06:50:37;;;;;;;2.95;1.25;;;6.40;99.90;;;;;;5046414;28;20036;-81
2024/02/03 06:53:05;;;;;;;2.28;1.00;;;6.20;99.90;;;;;;5046763;28;20040;-81
2024/02/03 06:55:30;;;;;;;2.50;1.00;;;6.20;99.90;;;;;;5046510;28;20568;-81
2024/02/03 06:57:56;;;;;;;4.57;2.30;;;6.00;99.90;;;;;;5045919;28;20066;-79
2024/02/03 07:00:22;;;;;;;3.25;1.52;;;6.00;99.90;;;;;;5046693;28;20567;-80
2024/02/03 07:02:48;;;;;;;2.90;1.45;;;5.90;99.90;;;;;;5046066;28;20032;-81
2024/02/03 07:05:14;;;;;;;6.90;2.08;;;6.00;99.90;;;;;;5045789;28;20037;-79
2024/02/03 07:07:40;;;;;;;3.55;1.60;;;6.00;99.90;;;;;;5046852;28;20032;-80
2024/02/03 07:10:06;;;;;;;3.20;1.30;;;6.10;99.90;;;;;;5046061;28;20055;-80
2024/02/03 07:12:32;;;;;;;3.72;1.38;;;6.10;99.90;;;;;;5046346;28;20044;-80
2024/02/03 07:14:58;;;;;;;3.13;1.38;;;6.30;99.90;;;;;;5046612;28;20033;-80
2024/02/03 07:17:23;;;;;;;5.10;1.85;;;6.40;99.90;;;;;;5044538;28;20111;-79
2024/02/03 07:19:49;;;;;;;3.08;1.30;;;6.50;99.90;;;;;;5047083;28;20043;-81
2024/02/03 07:22:15;;;;;;;7.90;1.60;;;6.50;99.90;;;;;;5047768;28;20064;-81
2024/02/03 07:24:41;;;;;;;3.38;1.38;;;6.30;99.90;;;;;;5045027;28;20098;-80
2024/02/03 07:27:06;;;;;;;2.60;1.08;;;6.30;99.90;;;;;;5046815;28;20044;-81
2024/02/03 07:29:32;;;;;;;5.05;1.60;;;6.20;99.90;;;;;;5046005;28;20043;-81
2024/02/03 07:32:02;;;;;;;3.38;1.38;;;6.20;99.90;;;;;;5045512;28;20351;-81
2024/02/03 07:34:28;;;;;;;2.42;1.10;;;6.30;99.90;;;;;;5047294;28;20036;-81
2024/02/03 07:36:54;;;;;;;2.97;1.35;;;6.50;99.90;;;;;;5045563;28;20221;-81
2024/02/03 07:39:20;;;;;;;2.65;1.10;;;6.30;99.90;;;;;;5048952;28;20066;-81
2024/02/03 07:41:46;;;;;;;3.40;1.58;;;6.10;99.90;;;;;;5049988;28;20025;-81
2024/02/03 07:44:12;;;;;;;4.63;1.60;;;6.00;99.90;;;;;;5049778;28;20041;-81
2024/02/03 07:46:38;;;;;;;4.85;1.40;;;6.00;99.90;;;;;;5047649;28;20585;-82
2024/02/03 07:49:07;;;;;;;3.88;1.17;;;6.00;99.90;;;;;;5048457;28;20559;-81
2024/02/03 07:51:32;;;;;;;2.38;1.23;;;6.00;99.90;;;;;;5050611;28;20053;-82
2024/02/03 07:53:58;;;;;;;3.85;1.30;;;6.00;99.90;;;;;;5056972;28;20036;-80
2024/02/03 07:56:24;;;;;;;3.60;1.30;;;6.10;99.90;;;;;;5054468;28;20493;-83
2024/02/03 07:58:51;;;;;;;3.08;1.40;;;6.10;99.90;;;;;;5048936;28;20044;-83
2024/02/03 08:01:21;;;;;;;3.55;1.40;;;6.00;99.90;;;;;;5047672;28;20081;-81
2024/02/03 08:03:51;;;;;;;2.88;1.38;;;5.90;99.90;;;;;;5047858;28;20032;-82
2024/02/03 08:06:17;;;;;;;3.78;1.40;;;5.90;99.90;;;;;;5048395;28;20053;-81
2024/02/03 08:08:42;;;;;;;3.72;1.33;;;6.00;99.90;;;;;;5048758;28;20133;-82
2024/02/03 08:11:09;;;;;;;4.68;2.05;;;6.00;99.90;;;;;;5050228;28;20037;-82
2024/02/03 08:13:35;;;;;;;2.97;1.42;;;6.10;99.90;;;;;;5049545;28;20036;-81
2024/02/03 08:16:01;;;;;;;3.97;1.30;;;6.10;99.90;;;;;;5048720;28;20094;-80
2024/02/03 08:18:26;;;;;;;3.78;1.50;;;6.20;99.90;;;;;;5049205;28;20036;-81
2024/02/03 08:20:52;;;;;;;5.10;1.45;;;6.10;99.90;;;;;;5047171;28;20549;-81
2024/02/03 08:23:18;;;;;;;2.97;1.20;;;6.00;99.90;;;;;;5048074;28;20090;-79
2024/02/03 08:25:44;;;;;;;3.70;1.25;;;6.00;99.90;;;;;;5046972;28;20036;-80
2024/02/03 08:28:09;;;;;;;2.13;0.98;;;6.10;99.90;;;;;;5046123;28;20104;-80
2024/02/03 08:30:37;;;;;;;3.22;1.42;;;6.10;99.90;;;;;;5048163;28;20057;-80
2024/02/03 08:33:03;;;;;;;4.57;1.40;;;6.20;99.90;;;;;;5046101;28;20044;-80
2024/02/03 08:35:28;;;;;;;2.42;1.02;;;6.50;99.90;;;;;;5046888;28;20036;-80
2024/02/03 08:37:54;;;;;;;3.60;1.60;;;6.70;99.90;;;;;;5047352;28;20434;-79
2024/02/03 08:40:20;;;;;;;3.55;1.38;;;6.70;99.90;;;;;;5046887;28;20398;-80
2024/02/03 08:42:46;;;;;;;2.20;1.08;;;6.40;99.90;;;;;;5043875;28;20039;-78
2024/02/03 08:45:12;;;;;;;3.30;1.30;;;6.40;99.90;;;;;;5045608;28;20542;-79
2024/02/03 08:47:38;;;;;;;2.85;1.20;;;6.40;99.90;;;;;;5048417;28;20037;-79
2024/02/03 08:50:04;;;;;;;3.60;1.88;;;6.40;99.90;;;;;;5047153;28;20032;-79
2024/02/03 08:52:30;;;;;;;4.68;2.60;;;6.30;99.90;;;;;;5047241;28;20123;-78
2024/02/03 08:54:56;;;;;;;5.35;3.05;;;6.40;99.90;;;;;;5049351;28;20093;-80
2024/02/03 08:57:21;;;;;;;7.05;4.15;;;6.40;99.90;;;;;;5044744;28;20614;-80
2024/02/03 08:59:50;;;;;;;5.22;2.72;;;6.30;99.90;;;;;;5046000;28;20032;-80
2024/02/03 09:02:16;;;;;;;5.75;3.65;;;6.40;99.90;;;;;;5046125;28;20120;-80
2024/02/03 09:04:41;;;;;;;4.75;2.92;;;6.50;99.90;;;;;;5048186;28;20038;-80
2024/02/03 09:07:07;;;;;;;4.32;2.50;;;6.40;99.90;;;;;;5048993;28;20374;-79
2024/02/03 09:09:33;;;;;;;3.90;2.17;;;6.10;99.90;;;;;;5048031;28;20143;-79
2024/02/03 09:11:59;;;;;;;4.13;2.28;;;6.10;99.90;;;;;;5048468;28;20039;-80
2024/02/03 09:14:24;;;;;;;4.25;2.17;;;6.20;99.90;;;;;;5047765;28;20090;-80
2024/02/03 09:16:50;;;;;;;3.00;1.85;;;6.20;99.90;;;;;;5029628;28;20041;-85
2024/02/03 09:19:16;;;;;;;4.95;1.95;;;6.30;99.90;;;;;;5049046;28;20043;-83
2024/02/03 09:21:42;;;;;;;5.63;2.20;;;6.30;99.90;;;;;;5043704;28;20040;-79
2024/02/03 09:24:08;;;;;;;5.72;2.00;;;6.40;99.90;;;;;;5052674;28;20087;-79
2024/02/03 09:26:39;;;;;;;4.68;1.88;;;6.30;99.90;;;;;;5052234;28;20049;-79
2024/02/03 09:29:08;;;;;;;5.63;2.08;;;6.30;99.90;;;;;;5051409;28;20559;-79
2024/02/03 09:31:34;;;;;;;8.15;2.70;;;6.20;99.90;;;;;;5051522;28;20040;-79
2024/02/03 09:34:04;;;;;;;4.32;1.90;;;6.20;99.90;;;;;;5055475;28;20031;-79
2024/02/03 09:36:34;;;;;;;3.63;1.67;;;6.30;99.90;;;;;;5052983;28;20098;-79
2024/02/03 09:39:00;;;;;;;3.63;1.65;;;6.30;99.90;;;;;;5053245;28;20025;-81
2024/02/03 09:41:27;;;;;;;4.97;1.90;;;6.50;99.90;;;;;;5052530;28;20054;-79
2024/02/03 09:43:53;;;;;;;6.45;3.03;;;6.50;99.90;;;;;;5053687;28;20759;-79
2024/02/03 09:46:19;;;;;;;5.05;2.95;;;6.50;99.90;;;;;;5054180;28;20033;-79
2024/02/03 09:48:45;;;;;;;6.18;2.70;;;6.50;99.90;;;;;;5054137;28;20046;-79
2024/02/03 09:51:11;;;;;;;4.25;2.03;;;6.60;99.90;;;;;;5052940;28;20059;-79
2024/02/03 09:53:38;;;;;;;4.57;1.95;;;6.70;99.90;;;;;;5053096;28;20032;-79
2024/02/03 09:56:05;;;;;;;6.40;2.67;;;6.80;99.90;;;;;;5053026;28;20734;-78
2024/02/03 09:58:30;;;;;;;5.93;2.83;;;6.70;99.90;;;;;;5051807;28;20040;-81
2024/02/03 10:00:56;;;;;;;6.22;3.22;;;6.60;99.90;;;;;;5053597;28;20390;-79
2024/02/03 10:03:22;;;;;;;8.80;3.85;;;6.60;99.90;;;;;;5052853;28;20074;-79
2024/02/03 10:06:01;;;;;;;9.25;3.88;;;6.80;99.90;;;;;;5052426;28;20047;-79
2024/02/03 10:08:27;;;;;;;7.85;4.50;;;6.80;99.90;;;;;;5049949;28;20115;-78
2024/02/03 10:10:55;;;;;;;6.78;4.10;;;6.80;99.90;;;;;;5048752;28;20067;-79
2024/02/03 10:13:23;;;;;;;5.47;2.92;;;7.00;99.90;;;;;;5049808;28;20032;-78
2024/02/03 10:16:00;;;;;;;6.35;2.67;;;7.40;99.90;;;;;;5049028;28;20025;-78
2024/02/03 10:18:26;;;;;;;4.63;2.25;;;7.70;99.90;;;;;;5049346;28;20177;-79
2024/02/03 10:20:51;;;;;;;6.38;2.72;;;7.70;99.90;;;;;;5048765;28;20044;-78
2024/02/03 10:23:17;;;;;;;5.78;3.65;;;7.60;99.90;;;;;;5053882;28;20035;-78
2024/02/03 10:25:44;;;;;;;7.25;3.15;;;7.70;99.90;;;;;;5052668;28;20048;-77
2024/02/03 10:28:11;;;;;;;8.75;4.38;;;7.80;99.90;;;;;;5052226;28;20052;-77
2024/02/03 10:30:38;;;;;;;9.00;4.40;;;7.80;99.90;;;;;;5053185;28;20036;-77
2024/02/03 10:33:05;;;;;;;7.20;3.55;;;7.80;99.90;;;;;;5053654;28;20024;-77
2024/02/03 10:35:33;;;;;;;6.15;3.03;;;7.90;99.90;;;;;;5053532;28;20785;-78
2024/02/03 10:37:59;;;;;;;6.93;3.13;;;7.90;99.90;;;;;;5053082;28;20135;-79
2024/02/03 10:40:33;;;;;;;6.80;3.42;;;8.00;99.90;;;;;;5054117;28;20085;-80
2024/02/03 10:43:00;;;;;;;7.80;3.03;;;8.00;99.90;;;;;;5054318;28;20033;-79
2024/02/03 10:45:30;;;;;;;7.53;3.38;;;8.10;99.90;;;;;;5053386;28;20036;-78
2024/02/03 10:48:03;;;;;;;7.85;4.90;;;8.20;99.90;;;;;;5052528;28;20115;-79
2024/02/03 10:50:40;;;;;;;6.50;3.83;;;8.50;99.90;;;;;;5050663;28;20029;-82
2024/02/03 10:53:09;;;;;;;9.90;4.32;;;8.40;99.90;;;;;;5049668;28;20539;-79
2024/02/03 10:55:39;;;;;;;7.53;4.00;;;8.50;99.90;;;;;;5050176;28;20047;-78
2024/02/03 10:58:06;;;;;;;6.55;3.70;;;8.60;99.90;;;;;;5050447;28;20035;-80
2024/02/03 11:00:32;;;;;;;9.18;4.85;;;8.80;99.90;;;;;;5050478;28;20032;-81
2024/02/03 11:02:59;;;;;;;8.35;4.43;;;8.80;99.90;;;;;;5048691;28;20029;-81
2024/02/03 11:05:29;;;;;;;6.53;3.70;;;9.00;99.90;;;;;;5047425;28;20093;-80
2024/02/03 11:08:03;;;;;;;10.85;4.30;;;8.90;99.90;;;;;;5048404;28;20036;-78
2024/02/03 11:10:28;;;;;;;8.23;3.75;;;9.00;99.90;;;;;;5048343;28;20044;-77
2024/02/03 11:13:11;;;;;;;8.18;4.75;;;9.10;99.90;;;;;;5050637;28;20039;-77
2024/02/03 11:15:46;;;;;;;9.05;3.75;;;9.10;99.90;;;;;;5052732;28;20497;-77
2024/02/03 11:18:13;;;;;;;12.25;4.43;;;9.20;99.90;;;;;;5053164;28;20036;-77
2024/02/03 11:20:39;;;;;;;7.30;4.30;;;9.40;99.80;;;;;;5053591;28;20032;-77
2024/02/03 11:23:13;;;;;;;7.50;4.15;;;9.50;99.80;;;;;;5054880;28;20032;-77
2024/02/03 11:25:47;;;;;;;5.90;3.45;;;9.80;99.70;;;;;;5054553;28;20075;-77
2024/02/03 11:28:13;;;;;;;7.38;3.95;;;10.00;99.30;;;;;;5053680;28;20125;-78
2024/02/03 11:30:39;;;;;;;9.77;3.30;;;10.00;99.30;;;;;;5053801;28;20370;-77
2024/02/03 11:33:08;;;;;;;8.68;3.75;;;10.20;99.20;;;;;;5053816;28;20040;-77
2024/02/03 11:35:35;;;;;;;11.05;7.15;;;10.20;98.90;;;;;;5054599;28;20037;-77
2024/02/03 11:38:08;;;;;;;11.40;5.60;;;10.50;99.00;;;;;;5053098;28;20542;-77
2024/02/03 11:40:46;;;;;;;9.73;4.47;;;10.60;99.20;;;;;;5053956;28;20032;-77
2024/02/03 11:43:13;;;;;;;8.25;3.88;;;10.60;98.60;;;;;;5053366;28;20032;-75
2024/02/03 11:45:45;;;;;;;35.88;20.05;;;10.60;98.50;;;;;;5035422;28;20070;-77
2024/02/03 11:48:11;;;;;;;16.98;10.05;;;10.70;98.40;;;;;;5054217;28;20032;-76
2024/02/03 11:50:37;;;;;;;8.88;5.53;;;10.90;98.00;;;;;;5053820;28;20111;-76
2024/02/03 11:53:03;;;;;;;7.28;4.40;;;10.90;97.80;;;;;;5054015;28;20115;-77
2024/02/03 11:55:29;;;;;;;8.35;3.72;;;11.00;97.70;;;;;;5053720;28;20658;-76
2024/02/03 11:57:54;;;;;;;5.75;3.85;;;11.10;98.00;;;;;;5053542;28;20024;-77
2024/02/03 12:00:20;;;;;;;6.43;3.35;;;11.40;97.60;;;;;;5055837;28;20135;-77
2024/02/03 12:02:47;;;;;;;7.32;3.20;;;11.50;97.30;;;;;;5056441;28;20012;-77
2024/02/03 12:05:13;;;;;;;6.88;3.33;;;11.50;97.40;;;;;;5057060;28;20055;-77
2024/02/03 12:07:39;;;;;;;5.07;2.80;;;11.70;97.10;;;;;;5057030;28;20040;-77
2024/02/03 12:10:09;;;;;;;5.35;2.50;;;11.80;97.20;;;;;;5055609;28;20132;-77
2024/02/03 12:12:35;;;;;;;7.47;2.67;;;11.80;96.90;;;;;;5053329;28;20198;-77
2024/02/03 12:15:01;;;;;;;5.45;2.83;;;11.80;96.50;;;;;;5053789;28;20514;-79
2024/02/03 12:17:27;;;;;;;4.63;2.50;;;11.80;96.50;;;;;;5053766;28;20035;-77
2024/02/03 12:19:54;;;;;;;4.97;2.78;;;11.80;96.70;;;;;;5053621;28;20356;-77
2024/02/03 12:22:20;;;;;;;7.60;2.60;;;11.90;96.50;;;;;;5053349;28;20150;-77
2024/02/03 12:24:47;;;;;;;6.15;3.47;;;12.10;96.60;;;;;;5052890;28;20078;-77
2024/02/03 12:27:13;;;;;;;6.53;3.13;;;12.30;96.10;;;;;;5053597;28;20040;-77
2024/02/03 12:29:41;;;;;;;6.75;2.40;;;12.40;96.30;;;;;;5055127;28;20376;-77
2024/02/03 12:32:07;;;;;;;5.78;2.40;;;12.40;96.20;;;;;;5056358;28;20067;-77
2024/02/03 12:34:32;;;;;;;5.18;2.47;;;12.40;95.70;;;;;;5056384;28;20439;-77
2024/02/03 12:36:58;;;;;;;4.85;2.33;;;12.40;96.00;;;;;;5056427;28;20035;-77
2024/02/03 12:39:24;;;;;;;6.15;2.60;;;12.50;96.20;;;;;;5056630;28;20032;-77
2024/02/03 12:41:50;;;;;;;4.53;1.85;;;12.50;96.00;;;;;;5056026;28;20033;-77
2024/02/03 12:44:16;;;;;;;2.95;1.52;;;12.40;95.20;;;;;;5056258;28;20031;-77
2024/02/03 12:46:41;;;;;;;3.60;1.90;;;12.40;95.30;;;;;;5056079;28;20595;-76
2024/02/03 12:49:07;;;;;;;3.67;1.80;;;12.50;95.40;;;;;;5056252;28;20490;-77
2024/02/03 12:51:33;;;;;;;4.18;1.98;;;12.40;95.10;;;;;;5054783;28;20493;-77